SBSN/STM METAR and TAF weather

Enter ICAO airport designator
Station Type Date Time Source
SBSN METAR 2020/09/19 21:00 UTC NOAA

SBSN 192100Z 13005KT CAVOK 32/22 Q1008


Station Type Date Time Source
SBSN Decoded METAR 2020/09/19 21:00 UTC NOAA

Santarem-Aeroporto, Brazil (SBSN) 02-26S 054-43W 72M
Sep 19, 2020 - 05:00 PM EDT / 2020.09.19 2100 UTC
Wind: from the SE (130 degrees) at 6 MPH (5 KT):0
Visibility: greater than 7 mile(s):0
Temperature: 89 F (32 C)
Heat index: 95.0 F (35.0 C):1
Dew Point: 71 F (22 C)
Relative Humidity: 55%
Pressure (altimeter): 29.77 in. Hg (1008 hPa)
ob: SBSN 192100Z 13005KT CAVOK 32/22 Q1008
cycle: 21

Station Type Date Time Source
SBSN TAF 2020/09/19 18:58 UTC NOAA

TAF SBSN 191500Z 1918/2018 10010KT 9999 FEW023 TN27/2009Z TX34/2017Z
BECMG 1920/1922 13005KT CAVOK
BECMG 2002/2004 00000KT
BECMG 2008/2010 11012KT FEW020
RMK PGU

Example: see airport list